sensor_id;sensor_type;location;lat;lon;timestamp;pressure;altitude;pressure_sealevel;temperature;humidity
85895;BME280;76441;49.954;8.842;2024-02-14T00:02:16;100641.50;;;4.37;75.93
85895;BME280;76441;49.954;8.842;2024-02-14T00:04:42;100648.59;;;4.52;75.27
85895;BME280;76441;49.954;8.842;2024-02-14T00:07:07;100644.09;;;4.51;75.55
85895;BME280;76441;49.954;8.842;2024-02-14T00:09:32;100634.41;;;4.42;75.36
85895;BME280;76441;49.954;8.842;2024-02-14T00:11:58;100638.31;;;4.52;75.76
85895;BME280;76441;49.954;8.842;2024-02-14T00:14:23;100634.53;;;4.47;75.51
85895;BME280;76441;49.954;8.842;2024-02-14T00:16:49;100630.19;;;4.51;75.87
85895;BME280;76441;49.954;8.842;2024-02-14T00:19:15;100638.09;;;4.54;75.58
85895;BME280;76441;49.954;8.842;2024-02-14T00:21:40;100636.91;;;4.61;75.28
85895;BME280;76441;49.954;8.842;2024-02-14T00:24:06;100639.81;;;4.66;75.86
85895;BME280;76441;49.954;8.842;2024-02-14T00:26:31;100640.56;;;4.74;75.95
85895;BME280;76441;49.954;8.842;2024-02-14T00:28:57;100636.34;;;4.83;75.36
85895;BME280;76441;49.954;8.842;2024-02-14T00:31:22;100629.81;;;4.77;75.12
85895;BME280;76441;49.954;8.842;2024-02-14T00:33:48;100631.00;;;4.81;76.47
85895;BME280;76441;49.954;8.842;2024-02-14T00:36:13;100637.88;;;4.67;77.03
85895;BME280;76441;49.954;8.842;2024-02-14T00:38:38;100643.94;;;4.76;76.84
85895;BME280;76441;49.954;8.842;2024-02-14T00:41:04;100635.13;;;4.79;77.30
85895;BME280;76441;49.954;8.842;2024-02-14T00:43:29;100633.19;;;4.79;77.08
85895;BME280;76441;49.954;8.842;2024-02-14T00:45:55;100643.47;;;4.79;77.45
85895;BME280;76441;49.954;8.842;2024-02-14T00:48:22;100638.63;;;4.74;78.59
85895;BME280;76441;49.954;8.842;2024-02-14T00:50:48;100635.00;;;4.74;78.77
85895;BME280;76441;49.954;8.842;2024-02-14T00:53:13;100631.22;;;4.68;79.20
85895;BME280;76441;49.954;8.842;2024-02-14T00:55:39;100627.59;;;4.67;79.40
85895;BME280;76441;49.954;8.842;2024-02-14T00:58:04;100620.59;;;4.77;79.13
85895;BME280;76441;49.954;8.842;2024-02-14T01:00:29;100627.50;;;4.74;79.74
85895;BME280;76441;49.954;8.842;2024-02-14T01:02:56;100617.22;;;4.75;80.09
85895;BME280;76441;49.954;8.842;2024-02-14T01:05:23;100619.53;;;4.78;79.66
85895;BME280;76441;49.954;8.842;2024-02-14T01:07:48;100626.31;;;4.82;79.29
85895;BME280;76441;49.954;8.842;2024-02-14T01:10:13;100620.13;;;4.80;79.35
85895;BME280;76441;49.954;8.842;2024-02-14T01:12:39;100622.31;;;4.78;79.64
85895;BME280;76441;49.954;8.842;2024-02-14T01:15:05;100619.41;;;4.84;78.71
85895;BME280;76441;49.954;8.842;2024-02-14T01:17:31;100611.22;;;4.89;79.02
85895;BME280;76441;49.954;8.842;2024-02-14T01:19:56;100624.41;;;4.94;78.78
85895;BME280;76441;49.954;8.842;2024-02-14T01:22:23;100619.09;;;4.92;78.21
85895;BME280;76441;49.954;8.842;2024-02-14T01:24:49;100601.44;;;4.98;78.08
85895;BME280;76441;49.954;8.842;2024-02-14T01:27:14;100606.50;;;5.01;77.51
85895;BME280;76441;49.954;8.842;2024-02-14T01:29:40;100597.31;;;5.01;77.20
85895;BME280;76441;49.954;8.842;2024-02-14T01:32:05;100592.25;;;4.98;77.98
85895;BME280;76441;49.954;8.842;2024-02-14T01:34:32;100599.63;;;5.04;78.14
85895;BME280;76441;49.954;8.842;2024-02-14T01:36:57;100596.84;;;5.04;77.15
85895;BME280;76441;49.954;8.842;2024-02-14T01:39:23;100590.06;;;4.88;78.16
85895;BME280;76441;49.954;8.842;2024-02-14T01:41:48;100591.03;;;4.94;78.22
85895;BME280;76441;49.954;8.842;2024-02-14T01:44:17;100588.47;;;4.92;78.51
85895;BME280;76441;49.954;8.842;2024-02-14T01:46:44;100586.38;;;4.76;79.36
85895;BME280;76441;49.954;8.842;2024-02-14T01:49:11;100590.50;;;4.85;78.83
85895;BME280;76441;49.954;8.842;2024-02-14T01:51:40;100578.41;;;4.80;79.50
85895;BME280;76441;49.954;8.842;2024-02-14T01:54:08;100582.88;;;4.81;80.14
85895;BME280;76441;49.954;8.842;2024-02-14T01:56:34;100572.13;;;4.84;79.99
85895;BME280;76441;49.954;8.842;2024-02-14T01:59:00;100582.63;;;4.82;79.63
85895;BME280;76441;49.954;8.842;2024-02-14T02:01:26;100570.53;;;4.77;80.34
85895;BME280;76441;49.954;8.842;2024-02-14T02:03:52;100572.97;;;4.73;80.39
85895;BME280;76441;49.954;8.842;2024-02-14T02:06:17;100562.56;;;4.80;79.39
85895;BME280;76441;49.954;8.842;2024-02-14T02:08:43;100567.75;;;4.77;79.78
85895;BME280;76441;49.954;8.842;2024-02-14T02:11:09;100566.72;;;4.89;79.37
85895;BME280;76441;49.954;8.842;2024-02-14T02:13:35;100561.00;;;5.19;77.64
85895;BME280;76441;49.954;8.842;2024-02-14T02:16:00;100564.41;;;5.10;78.57
85895;BME280;76441;49.954;8.842;2024-02-14T02:18:31;100561.75;;;5.15;77.84
85895;BME280;76441;49.954;8.842;2024-02-14T02:20:56;100558.34;;;5.13;77.89
85895;BME280;76441;49.954;8.842;2024-02-14T02:23:22;100556.06;;;5.10;79.13
85895;BME280;76441;49.954;8.842;2024-02-14T02:25:48;100560.78;;;5.32;76.12
85895;BME280;76441;49.954;8.842;2024-02-14T02:28:13;100552.91;;;5.18;77.56
85895;BME280;76441;49.954;8.842;2024-02-14T02:30:39;100545.66;;;5.05;78.73
85895;BME280;76441;49.954;8.842;2024-02-14T02:33:05;100554.25;;;5.04;78.32
85895;BME280;76441;49.954;8.842;2024-02-14T02:35:32;100545.53;;;5.00;79.08
85895;BME280;76441;49.954;8.842;2024-02-14T02:37:58;100548.56;;;4.98;79.18
85895;BME280;76441;49.954;8.842;2024-02-14T02:40:24;100545.19;;;4.96;79.45
85895;BME280;76441;49.954;8.842;2024-02-14T02:42:50;100545.31;;;4.90;80.01
85895;BME280;76441;49.954;8.842;2024-02-14T02:45:16;100546.41;;;4.89;79.65
85895;BME280;76441;49.954;8.842;2024-02-14T02:47:42;100544.34;;;4.96;79.99
85895;BME280;76441;49.954;8.842;2024-02-14T02:50:07;100550.03;;;4.89;79.59
85895;BME280;76441;49.954;8.842;2024-02-14T02:52:33;100549.53;;;4.92;80.46
85895;BME280;76441;49.954;8.842;2024-02-14T02:54:59;100557.41;;;4.95;80.02
85895;BME280;76441;49.954;8.842;2024-02-14T02:57:26;100556.69;;;4.88;80.11
85895;BME280;76441;49.954;8.842;2024-02-14T02:59:52;100565.72;;;4.84;81.22
85895;BME280;76441;49.954;8.842;2024-02-14T03:02:19;100571.44;;;4.89;80.49
85895;BME280;76441;49.954;8.842;2024-02-14T03:04:45;100578.56;;;4.96;79.93
85895;BME280;76441;49.954;8.842;2024-02-14T03:07:13;100573.38;;;4.88;81.74
85895;BME280;76441;49.954;8.842;2024-02-14T03:09:38;100572.03;;;5.03;80.58
85895;BME280;76441;49.954;8.842;2024-02-14T03:12:04;100571.19;;;5.02;80.92
85895;BME280;76441;49.954;8.842;2024-02-14T03:14:33;100565.88;;;5.00;81.27
85895;BME280;76441;49.954;8.842;2024-02-14T03:17:02;100573.50;;;5.05;81.19
85895;BME280;76441;49.954;8.842;2024-02-14T03:19:28;100567.91;;;5.17;79.54
85895;BME280;76441;49.954;8.842;2024-02-14T03:21:54;100570.47;;;5.30;78.61
85895;BME280;76441;49.954;8.842;2024-02-14T03:24:20;100574.31;;;5.41;78.44
85895;BME280;76441;49.954;8.842;2024-02-14T03:26:46;100569.13;;;5.44;78.83
85895;BME280;76441;49.954;8.842;2024-02-14T03:29:12;100580.97;;;5.40;78.35
85895;BME280;76441;49.954;8.842;2024-02-14T03:31:38;100580.13;;;5.39;78.04
85895;BME280;76441;49.954;8.842;2024-02-14T03:34:03;100575.28;;;5.46;77.90
85895;BME280;76441;49.954;8.842;2024-02-14T03:36:29;100578.66;;;5.48;78.44
85895;BME280;76441;49.954;8.842;2024-02-14T03:38:56;100567.88;;;5.63;77.91
85895;BME280;76441;49.954;8.842;2024-02-14T03:41:22;100576.63;;;5.55;77.44
85895;BME280;76441;49.954;8.842;2024-02-14T03:43:47;100574.31;;;5.64;77.14
85895;BME280;76441;49.954;8.842;2024-02-14T03:46:17;100576.47;;;5.74;77.07
85895;BME280;76441;49.954;8.842;2024-02-14T03:48:46;100565.84;;;5.59;77.41
85895;BME280;76441;49.954;8.842;2024-02-14T03:51:12;100567.19;;;5.56;77.59
85895;BME280;76441;49.954;8.842;2024-02-14T03:53:38;100578.06;;;5.58;78.18
85895;BME280;76441;49.954;8.842;2024-02-14T03:56:03;100575.03;;;5.59;78.63
85895;BME280;76441;49.954;8.842;2024-02-14T03:58:29;100575.03;;;5.59;78.30
85895;BME280;76441;49.954;8.842;2024-02-14T04:00:54;100579.38;;;5.67;77.86
85895;BME280;76441;49.954;8.842;2024-02-14T04:03:19;100583.16;;;5.61;78.54
85895;BME280;76441;49.954;8.842;2024-02-14T04:05:45;100579.03;;;5.63;78.12
85895;BME280;76441;49.954;8.842;2024-02-14T04:08:11;100578.44;;;5.61;78.65
85895;BME280;76441;49.954;8.842;2024-02-14T04:10:37;100586.66;;;5.68;78.38
85895;BME280;76441;49.954;8.842;2024-02-14T04:13:03;100591.97;;;5.70;78.73
85895;BME280;76441;49.954;8.842;2024-02-14T04:15:30;100586.16;;;5.71;79.12
85895;BME280;76441;49.954;8.842;2024-02-14T04:17:55;100582.28;;;5.72;78.41
85895;BME280;76441;49.954;8.842;2024-02-14T04:20:21;100572.31;;;6.00;76.31
85895;BME280;76441;49.954;8.842;2024-02-14T04:22:46;100577.03;;;5.99;77.72
85895;BME280;76441;49.954;8.842;2024-02-14T04:25:11;100579.47;;;5.96;77.68
85895;BME280;76441;49.954;8.842;2024-02-14T04:27:37;100578.03;;;5.93;78.38
85895;BME280;76441;49.954;8.842;2024-02-14T04:30:04;100593.91;;;5.92;78.45
85895;BME280;76441;49.954;8.842;2024-02-14T04:32:30;100578.72;;;6.00;78.27
85895;BME280;76441;49.954;8.842;2024-02-14T04:34:55;100578.94;;;6.10;77.88
85895;BME280;76441;49.954;8.842;2024-02-14T04:37:21;100577.94;;;6.16;77.53
85895;BME280;76441;49.954;8.842;2024-02-14T04:39:47;100579.59;;;6.29;77.43
85895;BME280;76441;49.954;8.842;2024-02-14T04:42:12;100584.59;;;6.44;75.79
85895;BME280;76441;49.954;8.842;2024-02-14T04:44:38;100582.91;;;6.43;75.87
85895;BME280;76441;49.954;8.842;2024-02-14T04:47:04;100582.66;;;6.44;76.22
85895;BME280;76441;49.954;8.842;2024-02-14T04:49:30;100579.94;;;6.61;75.44
85895;BME280;76441;49.954;8.842;2024-02-14T04:51:56;100578.56;;;6.64;75.51
85895;BME280;76441;49.954;8.842;2024-02-14T04:54:21;100572.06;;;6.75;74.23
85895;BME280;76441;49.954;8.842;2024-02-14T04:56:46;100570.53;;;6.84;74.91
85895;BME280;76441;49.954;8.842;2024-02-14T04:59:12;100576.22;;;6.89;75.12
85895;BME280;76441;49.954;8.842;2024-02-14T05:01:38;100569.44;;;7.18;72.84
85895;BME280;76441;49.954;8.842;2024-02-14T05:04:05;100569.22;;;7.03;74.22
85895;BME280;76441;49.954;8.842;2024-02-14T05:06:30;100558.72;;;7.10;73.76
85895;BME280;76441;49.954;8.842;2024-02-14T05:08:56;100564.19;;;7.22;73.46
85895;BME280;76441;49.954;8.842;2024-02-14T05:11:21;100575.59;;;7.37;72.06
85895;BME280;76441;49.954;8.842;2024-02-14T05:13:47;100564.44;;;7.37;72.79
85895;BME280;76441;49.954;8.842;2024-02-14T05:16:12;100573.47;;;7.44;72.56
85895;BME280;76441;49.954;8.842;2024-02-14T05:18:38;100575.69;;;7.42;72.91
85895;BME280;76441;49.954;8.842;2024-02-14T05:21:07;100573.06;;;7.36;73.04
85895;BME280;76441;49.954;8.842;2024-02-14T05:23:33;100562.56;;;7.43;72.78
85895;BME280;76441;49.954;8.842;2024-02-14T05:25:58;100569.38;;;7.30;74.05
85895;BME280;76441;49.954;8.842;2024-02-14T05:28:24;100562.56;;;7.43;73.47
85895;BME280;76441;49.954;8.842;2024-02-14T05:30:49;100565.53;;;7.36;73.96
85895;BME280;76441;49.954;8.842;2024-02-14T05:33:14;100563.25;;;7.33;74.06
85895;BME280;76441;49.954;8.842;2024-02-14T05:35:40;100561.47;;;7.44;73.68
85895;BME280;76441;49.954;8.842;2024-02-14T05:38:05;100562.81;;;7.41;74.13
85895;BME280;76441;49.954;8.842;2024-02-14T05:40:33;100550.66;;;7.31;74.78
85895;BME280;76441;49.954;8.842;2024-02-14T05:42:59;100558.34;;;7.24;74.82
85895;BME280;76441;49.954;8.842;2024-02-14T05:45:25;100552.25;;;7.27;75.31
85895;BME280;76441;49.954;8.842;2024-02-14T05:47:50;100562.94;;;7.30;74.95
85895;BME280;76441;49.954;8.842;2024-02-14T05:50:16;100560.09;;;7.46;74.09
85895;BME280;76441;49.954;8.842;2024-02-14T05:52:42;100567.75;;;7.34;75.21
85895;BME280;76441;49.954;8.842;2024-02-14T05:55:07;100553.84;;;7.39;75.01
85895;BME280;76441;49.954;8.842;2024-02-14T05:57:34;100567.31;;;7.42;74.57
85895;BME280;76441;49.954;8.842;2024-02-14T05:59:59;100568.91;;;7.38;75.24
85895;BME280;76441;49.954;8.842;2024-02-14T06:02:24;100572.44;;;7.50;74.76
85895;BME280;76441;49.954;8.842;2024-02-14T06:04:50;100560.53;;;7.38;76.13
85895;BME280;76441;49.954;8.842;2024-02-14T06:07:16;100565.28;;;7.38;75.80
85895;BME280;76441;49.954;8.842;2024-02-14T06:09:41;100571.78;;;7.43;75.90
85895;BME280;76441;49.954;8.842;2024-02-14T06:12:07;100570.94;;;7.43;76.01
85895;BME280;76441;49.954;8.842;2024-02-14T06:14:32;100568.47;;;7.46;75.77
85895;BME280;76441;49.954;8.842;2024-02-14T06:16:59;100572.03;;;7.42;76.59
85895;BME280;76441;49.954;8.842;2024-02-14T06:19:24;100580.75;;;7.45;76.05
85895;BME280;76441;49.954;8.842;2024-02-14T06:21:49;100583.81;;;7.44;76.60
85895;BME280;76441;49.954;8.842;2024-02-14T06:24:15;100591.41;;;7.48;76.04
85895;BME280;76441;49.954;8.842;2024-02-14T06:26:40;100602.66;;;7.54;76.00
85895;BME280;76441;49.954;8.842;2024-02-14T06:29:05;100592.13;;;7.61;75.95
85895;BME280;76441;49.954;8.842;2024-02-14T06:31:31;100591.22;;;7.55;76.52
85895;BME280;76441;49.954;8.842;2024-02-14T06:33:57;100604.69;;;7.58;76.52
85895;BME280;76441;49.954;8.842;2024-02-14T06:36:25;100605.88;;;7.45;77.72
85895;BME280;76441;49.954;8.842;2024-02-14T06:38:50;100611.41;;;7.40;77.83
85895;BME280;76441;49.954;8.842;2024-02-14T06:41:16;100608.28;;;7.37;78.19
85895;BME280;76441;49.954;8.842;2024-02-14T06:43:41;100614.44;;;7.39;78.71
85895;BME280;76441;49.954;8.842;2024-02-14T06:46:07;100616.47;;;7.27;80.25
85895;BME280;76441;49.954;8.842;2024-02-14T06:48:32;100621.13;;;7.21;80.99
85895;BME280;76441;49.954;8.842;2024-02-14T06:50:57;100634.91;;;7.28;80.48
85895;BME280;76441;49.954;8.842;2024-02-14T06:53:23;100631.19;;;7.22;81.25
85895;BME280;76441;49.954;8.842;2024-02-14T06:55:48;100646.25;;;7.21;80.84
85895;BME280;76441;49.954;8.842;2024-02-14T06:58:14;100639.50;;;7.17;81.78
85895;BME280;76441;49.954;8.842;2024-02-14T07:00:39;100632.72;;;7.13;81.51
85895;BME280;76441;49.954;8.842;2024-02-14T07:03:05;100636.13;;;7.15;81.47
85895;BME280;76441;49.954;8.842;2024-02-14T07:05:30;100649.47;;;7.13;82.36
85895;BME280;76441;49.954;8.842;2024-02-14T07:07:56;100648.56;;;7.07;82.74
85895;BME280;76441;49.954;8.842;2024-02-14T07:10:22;100640.19;;;7.07;82.76
85895;BME280;76441;49.954;8.842;2024-02-14T07:12:47;100645.75;;;7.07;82.35
85895;BME280;76441;49.954;8.842;2024-02-14T07:15:12;100642.81;;;7.14;81.99
85895;BME280;76441;49.954;8.842;2024-02-14T07:17:38;100652.34;;;7.18;81.37
85895;BME280;76441;49.954;8.842;2024-02-14T07:20:05;100650.66;;;7.17;81.55
85895;BME280;76441;49.954;8.842;2024-02-14T07:22:31;100651.75;;;7.16;81.79
85895;BME280;76441;49.954;8.842;2024-02-14T07:24:56;100642.81;;;7.14;82.35
85895;BME280;76441;49.954;8.842;2024-02-14T07:27:22;100643.47;;;7.21;81.04
85895;BME280;76441;49.954;8.842;2024-02-14T07:29:49;100646.59;;;7.25;81.26
85895;BME280;76441;49.954;8.842;2024-02-14T07:32:14;100648.66;;;7.29;80.47
85895;BME280;76441;49.954;8.842;2024-02-14T07:34:40;100653.81;;;7.37;80.44
85895;BME280;76441;49.954;8.842;2024-02-14T07:37:05;100646.94;;;7.28;80.52
85895;BME280;76441;49.954;8.842;2024-02-14T07:39:30;100636.63;;;7.45;79.53
85895;BME280;76441;49.954;8.842;2024-02-14T07:41:56;100636.09;;;7.48;79.79
85895;BME280;76441;49.954;8.842;2024-02-14T07:44:22;100644.03;;;7.57;79.54
85895;BME280;76441;49.954;8.842;2024-02-14T07:46:49;100641.84;;;7.59;79.64
85895;BME280;76441;49.954;8.842;2024-02-14T07:49:14;100647.28;;;7.65;79.08
85895;BME280;76441;49.954;8.842;2024-02-14T07:51:40;100650.41;;;7.69;78.71
85895;BME280;76441;49.954;8.842;2024-02-14T07:54:05;100656.66;;;7.76;78.46
85895;BME280;76441;49.954;8.842;2024-02-14T07:56:31;100663.66;;;7.78;78.26
85895;BME280;76441;49.954;8.842;2024-02-14T07:58:57;100663.47;;;7.85;77.95
85895;BME280;76441;49.954;8.842;2024-02-14T08:01:23;100653.22;;;7.91;77.53
85895;BME280;76441;49.954;8.842;2024-02-14T08:03:48;100659.91;;;7.90;77.60
85895;BME280;76441;49.954;8.842;2024-02-14T08:06:14;100659.06;;;7.89;77.55
85895;BME280;76441;49.954;8.842;2024-02-14T08:08:39;100657.38;;;7.88;78.50
85895;BME280;76441;49.954;8.842;2024-02-14T08:11:05;100669.06;;;7.85;78.45
85895;BME280;76441;49.954;8.842;2024-02-14T08:13:31;100666.34;;;7.90;77.98
85895;BME280;76441;49.954;8.842;2024-02-14T08:15:56;100666.28;;;7.85;78.63
85895;BME280;76441;49.954;8.842;2024-02-14T08:18:23;100671.94;;;7.90;78.54
85895;BME280;76441;49.954;8.842;2024-02-14T08:20:49;100664.97;;;7.93;78.39
85895;BME280;76441;49.954;8.842;2024-02-14T08:23:14;100664.81;;;7.99;78.90
85895;BME280;76441;49.954;8.842;2024-02-14T08:25:40;100676.06;;;8.04;78.26
85895;BME280;76441;49.954;8.842;2024-02-14T08:28:09;100678.94;;;8.09;77.95
85895;BME280;76441;49.954;8.842;2024-02-14T08:30:35;100680.09;;;8.13;77.84
85895;BME280;76441;49.954;8.842;2024-02-14T08:33:00;100677.31;;;8.13;77.73
85895;BME280;76441;49.954;8.842;2024-02-14T08:35:26;100673.47;;;8.20;78.07
85895;BME280;76441;49.954;8.842;2024-02-14T08:37:51;100680.81;;;8.26;77.33
85895;BME280;76441;49.954;8.842;2024-02-14T08:40:16;100663.13;;;8.20;78.27
85895;BME280;76441;49.954;8.842;2024-02-14T08:42:42;100670.41;;;8.21;78.66
85895;BME280;76441;49.954;8.842;2024-02-14T08:45:08;100674.38;;;8.25;78.54
85895;BME280;76441;49.954;8.842;2024-02-14T08:47:34;100672.44;;;8.26;78.45
85895;BME280;76441;49.954;8.842;2024-02-14T08:49:59;100664.63;;;8.28;78.43
85895;BME280;76441;49.954;8.842;2024-02-14T08:52:25;100672.88;;;8.34;78.57
85895;BME280;76441;49.954;8.842;2024-02-14T08:54:51;100673.19;;;8.38;78.52
85895;BME280;76441;49.954;8.842;2024-02-14T08:57:16;100672.16;;;8.44;78.58
85895;BME280;76441;49.954;8.842;2024-02-14T08:59:43;100668.25;;;8.45;78.98
85895;BME280;76441;49.954;8.842;2024-02-14T09:02:12;100676.91;;;8.43;79.61
85895;BME280;76441;49.954;8.842;2024-02-14T09:04:38;100676.63;;;8.45;78.99
85895;BME280;76441;49.954;8.842;2024-02-14T09:07:04;100674.94;;;8.44;79.31
85895;BME280;76441;49.954;8.842;2024-02-14T09:09:29;100672.78;;;8.51;79.13
85895;BME280;76441;49.954;8.842;2024-02-14T09:11:54;100686.53;;;8.53;79.06
85895;BME280;76441;49.954;8.842;2024-02-14T09:14:20;100671.47;;;8.59;78.28
85895;BME280;76441;49.954;8.842;2024-02-14T09:16:45;100680.72;;;8.59;78.96
85895;BME280;76441;49.954;8.842;2024-02-14T09:19:11;100677.06;;;8.59;78.62
85895;BME280;76441;49.954;8.842;2024-02-14T09:21:37;100693.03;;;8.58;78.61
85895;BME280;76441;49.954;8.842;2024-02-14T09:24:03;100687.69;;;8.57;78.98
85895;BME280;76441;49.954;8.842;2024-02-14T09:26:29;100683.41;;;8.49;79.45
85895;BME280;76441;49.954;8.842;2024-02-14T09:28:55;100692.06;;;8.48;79.13
85895;BME280;76441;49.954;8.842;2024-02-14T09:31:20;100692.38;;;8.51;78.99
85895;BME280;76441;49.954;8.842;2024-02-14T09:33:47;100689.66;;;8.56;79.20
85895;BME280;76441;49.954;8.842;2024-02-14T09:36:13;100693.34;;;8.62;78.97
85895;BME280;76441;49.954;8.842;2024-02-14T09:38:40;100689.16;;;8.64;79.09
85895;BME280;76441;49.954;8.842;2024-02-14T09:43:45;100706.63;;;8.71;79.16
85895;BME280;76441;49.954;8.842;2024-02-14T09:46:14;100704.00;;;8.65;79.49
85895;BME280;76441;49.954;8.842;2024-02-14T09:48:43;100709.69;;;8.70;79.08
85895;BME280;76441;49.954;8.842;2024-02-14T09:51:09;100710.59;;;8.75;78.88
85895;BME280;76441;49.954;8.842;2024-02-14T09:53:35;100700.25;;;8.76;78.78
85895;BME280;76441;49.954;8.842;2024-02-14T09:56:02;100698.88;;;8.79;79.25
85895;BME280;76441;49.954;8.842;2024-02-14T09:58:28;100699.50;;;8.86;78.89
85895;BME280;76441;49.954;8.842;2024-02-14T10:00:54;100695.06;;;8.90;78.66
85895;BME280;76441;49.954;8.842;2024-02-14T10:03:19;100699.28;;;8.92;78.63
85895;BME280;76441;49.954;8.842;2024-02-14T10:05:45;100706.91;;;8.97;79.56
85895;BME280;76441;49.954;8.842;2024-02-14T10:08:10;100703.69;;;9.10;78.29
85895;BME280;76441;49.954;8.842;2024-02-14T10:10:37;100700.72;;;9.22;76.81
85895;BME280;76441;49.954;8.842;2024-02-14T10:13:06;100705.56;;;9.31;77.77
85895;BME280;76441;49.954;8.842;2024-02-14T10:15:33;100704.38;;;9.22;77.28
85895;BME280;76441;49.954;8.842;2024-02-14T10:17:59;100703.03;;;9.30;78.37
85895;BME280;76441;49.954;8.842;2024-02-14T10:20:25;100703.63;;;9.32;77.94
85895;BME280;76441;49.954;8.842;2024-02-14T10:22:51;100700.63;;;9.38;77.47
85895;BME280;76441;49.954;8.842;2024-02-14T10:25:17;100701.84;;;9.53;77.40
85895;BME280;76441;49.954;8.842;2024-02-14T10:27:45;100711.66;;;9.50;76.86
85895;BME280;76441;49.954;8.842;2024-02-14T10:30:13;100701.00;;;9.52;78.03
85895;BME280;76441;49.954;8.842;2024-02-14T10:32:39;100704.91;;;9.51;77.62
85895;BME280;76441;49.954;8.842;2024-02-14T10:35:06;100721.44;;;9.48;77.29
85895;BME280;76441;49.954;8.842;2024-02-14T10:37:37;100711.91;;;9.49;78.17
85895;BME280;76441;49.954;8.842;2024-02-14T10:40:04;100720.28;;;9.44;77.89
85895;BME280;76441;49.954;8.842;2024-02-14T10:42:30;100727.66;;;9.55;77.62
85895;BME280;76441;49.954;8.842;2024-02-14T10:44:56;100719.84;;;9.62;77.54
85895;BME280;76441;49.954;8.842;2024-02-14T10:47:25;100720.75;;;9.67;77.29
85895;BME280;76441;49.954;8.842;2024-02-14T10:49:57;100731.41;;;9.70;76.93
85895;BME280;76441;49.954;8.842;2024-02-14T10:52:26;100729.47;;;9.71;76.81
85895;BME280;76441;49.954;8.842;2024-02-14T10:54:56;100739.94;;;9.81;76.48
85895;BME280;76441;49.954;8.842;2024-02-14T10:57:24;100744.72;;;9.85;77.07
85895;BME280;76441;49.954;8.842;2024-02-14T10:59:50;100729.63;;;9.91;76.59
85895;BME280;76441;49.954;8.842;2024-02-14T11:02:17;100731.34;;;9.97;76.47
85895;BME280;76441;49.954;8.842;2024-02-14T11:04:43;100724.81;;;9.82;76.44
85895;BME280;76441;49.954;8.842;2024-02-14T11:07:09;100718.88;;;9.78;77.24
85895;BME280;76441;49.954;8.842;2024-02-14T11:09:38;100730.78;;;9.95;76.25
85895;BME280;76441;49.954;8.842;2024-02-14T11:12:07;100721.50;;;9.90;76.68
85895;BME280;76441;49.954;8.842;2024-02-14T11:14:34;100729.53;;;9.76;77.09
85895;BME280;76441;49.954;8.842;2024-02-14T11:17:01;100728.38;;;9.72;76.49
85895;BME280;76441;49.954;8.842;2024-02-14T11:19:33;100732.06;;;9.78;77.38
85895;BME280;76441;49.954;8.842;2024-02-14T11:22:13;100739.06;;;9.75;77.18
85895;BME280;76441;49.954;8.842;2024-02-14T11:24:39;100727.25;;;9.73;77.13
85895;BME280;76441;49.954;8.842;2024-02-14T11:27:10;100728.03;;;9.68;77.34
85895;BME280;76441;49.954;8.842;2024-02-14T11:29:35;100721.81;;;9.61;78.03
85895;BME280;76441;49.954;8.842;2024-02-14T11:32:01;100715.31;;;9.56;78.17
85895;BME280;76441;49.954;8.842;2024-02-14T11:34:31;100722.91;;;9.55;77.76
85895;BME280;76441;49.954;8.842;2024-02-14T11:36:59;100713.81;;;9.75;77.92
85895;BME280;76441;49.954;8.842;2024-02-14T11:39:28;100711.59;;;9.77;77.52
85895;BME280;76441;49.954;8.842;2024-02-14T11:41:53;100709.75;;;9.98;76.82
85895;BME280;76441;49.954;8.842;2024-02-14T11:44:19;100714.06;;;10.11;76.59
85895;BME280;76441;49.954;8.842;2024-02-14T11:46:47;100706.03;;;10.24;75.57
85895;BME280;76441;49.954;8.842;2024-02-14T11:49:13;100693.41;;;10.22;75.82
85895;BME280;76441;49.954;8.842;2024-02-14T11:51:38;100694.69;;;10.56;75.85
85895;BME280;76441;49.954;8.842;2024-02-14T11:54:05;100690.00;;;10.20;75.77
85895;BME280;76441;49.954;8.842;2024-02-14T11:56:33;100686.63;;;10.18;75.78
85895;BME280;76441;49.954;8.842;2024-02-14T11:59:00;100703.16;;;10.14;75.95
85895;BME280;76441;49.954;8.842;2024-02-14T12:01:29;100692.03;;;10.29;75.78
85895;BME280;76441;49.954;8.842;2024-02-14T12:03:56;100701.72;;;10.59;75.35
85895;BME280;76441;49.954;8.842;2024-02-14T12:06:22;100696.63;;;10.51;75.88
85895;BME280;76441;49.954;8.842;2024-02-14T12:08:47;100695.22;;;10.48;74.88
85895;BME280;76441;49.954;8.842;2024-02-14T12:11:13;100688.97;;;10.36;75.79
85895;BME280;76441;49.954;8.842;2024-02-14T12:13:38;100697.13;;;10.38;75.85
85895;BME280;76441;49.954;8.842;2024-02-14T12:16:08;100696.63;;;10.51;75.85
85895;BME280;76441;49.954;8.842;2024-02-14T12:18:33;100699.16;;;10.52;76.26
85895;BME280;76441;49.954;8.842;2024-02-14T12:21:06;100706.88;;;10.25;76.00
85895;BME280;76441;49.954;8.842;2024-02-14T12:23:35;100702.97;;;10.26;76.42
85895;BME280;76441;49.954;8.842;2024-02-14T12:26:04;100715.63;;;10.39;77.14
85895;BME280;76441;49.954;8.842;2024-02-14T12:28:31;100710.34;;;10.42;76.08
85895;BME280;76441;49.954;8.842;2024-02-14T12:30:56;100703.66;;;10.53;76.42
85895;BME280;76441;49.954;8.842;2024-02-14T12:33:23;100706.22;;;10.60;76.39
85895;BME280;76441;49.954;8.842;2024-02-14T12:35:49;100705.06;;;10.51;76.06
85895;BME280;76441;49.954;8.842;2024-02-14T12:38:16;100700.56;;;10.50;76.40
85895;BME280;76441;49.954;8.842;2024-02-14T12:40:42;100696.94;;;10.54;76.09
85895;BME280;76441;49.954;8.842;2024-02-14T12:43:08;100705.63;;;10.53;76.15
85895;BME280;76441;49.954;8.842;2024-02-14T12:45:34;100707.03;;;10.50;77.43
85895;BME280;76441;49.954;8.842;2024-02-14T12:48:00;100696.34;;;10.47;77.10
85895;BME280;76441;49.954;8.842;2024-02-14T12:50:25;100698.03;;;10.48;76.50
85895;BME280;76441;49.954;8.842;2024-02-14T12:52:51;100697.47;;;10.46;77.00
85895;BME280;76441;49.954;8.842;2024-02-14T12:55:16;100708.13;;;10.44;76.60
85895;BME280;76441;49.954;8.842;2024-02-14T12:57:43;100706.94;;;10.40;76.06